Cizur Mayor, Spain
Current Conditions -  °F | °C
As of 12:00 AM on Saturday 20 Dec 2014 (Local Time) from LEPP Reporting Station
Scattered Clouds Scattered Clouds  
Wind Chill: 46°   Ceiling: Unl
Heat Index: 48°   Visibility: 6mi
Dew Point: 41°   Wind: 5mph
Humidity: 76%   Direction: 310°NW
Pressure: 30.5"   Gusts: NA
Location:  42.79°N, 1.69°W
Report Text: LEPP 192300Z 31004KT 260V350 9999 SCT026 09/05 Q1033
Loading
Personal Weather Stations






























Interactive Weather Map New forecast layout! Learn more

10-Day Weather Forecast

Advertisements
Track Severe Weather on mobile